Elkins-Randolph Co-Jennings Randolph Field
KEKN : rendu visible

Aérodrome :











RETROUVEZ-NOUS SUR...

 
LOGIN :

S'inscrire | Disclaimer

   EN    FR    IT 

 









Légende :    VFR   VFR Marginal   IFR   IFR Intensif   IFR Très Intensif
Visi : 
Plafond : 
>= 8 km
>= 3000ft
5 à 8 km
1000 à 3000 ft
1500m à 5 km
500 à 1000 ft
800 à 1500m
200 à 500 ft
< 800m
< 200 ft
Symboles :   Orages  Brouillard  Fortes neiges  Fortes précipitations  Vent > 20 kt






- Altitude de l'aérodrome : 1987 ft


KEKN - Elkins-Randolph Co-Jennings Randolph Field

DERNIER METAR :
  • 281151Z AUTO 00000KT 8SM BKN039 BKN050 OVC080 14/13 A2990 RMK AO2 SLP125 60007 70026 T01440128 10161 20117 53002

METARs EXPIRÉS :
  • 281051Z AUTO 14005KT 10SM BKN042 BKN049 BKN060 16/13 A2988 RMK AO2 LTG DSNT NE SLP117 T01610128
  • 280951Z AUTO 00000KT 9SM BKN042 BKN049 OVC065 13/12 A2989 RMK AO2 SLP120 T01330117

TAF KEKN
Valide du 28 à 12h jusqu'au 29 à 12h UTC


281120Z 2812/2912 VRB03KT P6SM BKN040
TEMPO 2812/2813 6SM BR BKN012
FM281300 21004KT P6SM BKN025
FM281400 23009G16KT P6SM BKN035
FM281500 23010G20KT P6SM BKN035
FM290000 20008KT P6SM BKN200
FM291100 20009G17KT P6SM BKN120



MET'MAP, la Météo Aéronautique d'un coup d'oeil ! - Copyright ORBIFLY Décembre 2007 - Disclaimer

ORBIFLY MET'MAP TEAM :

Programmation & Développement : Alexandra Zaïnal
Sur une idée originale de : Baudouin d'Aumeries
Assistance à la programmation : Marc-Olivier Méhu
Soutien technique & logistique : Manuel Goepfert

Contact : metmap@orbifly.com




SOURCES & CREDITS :

   NOAA       Earth
Advisory